Ashland, Nebraska
Current Conditions -  °F | °C
As of 5:15 AM on Friday 31 Oct 2014 (Local Time) from KMLE Reporting Station
Clear Clear  
Wind Chill: 27°   Ceiling: Unl
Heat Index: 32°   Visibility: 10mi
Dew Point: 22°   Wind: 5mph
Humidity: 67%   Direction: 340°NNW
Pressure: 30.49"   Gusts: NA
Location:  41.04°N, 96.37°W
Report Text: KMLE 311015Z AUTO 34004KT 10SM CLR 00/M05 A3049 RMK AO2 T00001055
Loading
Personal Weather Stations






























Interactive Weather Map
Tropical Storm Tracking
New forecast layout! Learn more

10-Day Weather Forecast

Advertisements
Track Severe Weather on mobile